Time;durP1;ratioP1;P1;durP2;ratioP2;P2;SDS_P1;SDS_P2;PMS_P1;PMS_P2;Temp;Humidity;BMP_temperature;BMP_pressure;BME280_temperature;BME280_humidity;BME280_pressure;Samples;Min_cycle;Max_cycle;Signal;HPM_P1;HPM_P2
2022/09/10 00:01:20;;;;;;;;;14.00;14.00;;;;;16.73;78.97;100766.03;5009086;28;8899;-65
2022/09/10 00:03:50;;;;;;;;;12.00;10.67;;;;;16.73;79.32;100768.75;5025253;28;9160;-65
2022/09/10 00:06:18;;;;;;;;;15.00;11.67;;;;;16.75;79.07;100761.19;5023331;22;9042;-64
2022/09/10 00:08:45;;;;;;;;;17.33;15.67;;;;;16.75;79.08;100769.34;5028400;28;9197;-64
2022/09/10 00:11:13;;;;;;;;;12.33;10.67;;;;;16.72;79.49;100761.63;5029559;28;9078;-64
2022/09/10 00:13:41;;;;;;;;;16.67;15.33;;;;;16.69;79.21;100764.81;5028277;28;8995;-64
2022/09/10 00:16:10;;;;;;;;;8.00;8.00;;;;;16.71;79.22;100761.88;5029641;28;9895;-64
2022/09/10 00:18:38;;;;;;;;;8.33;8.33;;;;;16.69;79.23;100764.81;5029351;28;9011;-66
2022/09/10 00:21:09;;;;;;;;;8.00;7.33;;;;;16.71;79.36;100759.97;5019411;28;9075;-63
2022/09/10 00:23:35;;;;;;;;;16.00;14.67;;;;;16.68;79.37;100760.44;5009781;28;9018;-65
2022/09/10 00:26:22;;;;;;;;;19.33;17.33;;;;;16.66;79.68;100765.28;5008391;28;9087;-65
2022/09/10 00:28:50;;;;;;;;;15.33;14.33;;;;;16.66;79.94;100762.56;5009752;28;9060;-65
2022/09/10 00:31:18;;;;;;;;;13.67;13.67;;;;;16.69;79.72;100766.69;5021744;28;9024;-64
2022/09/10 00:33:45;;;;;;;;;8.00;8.00;;;;;16.69;79.39;100766.69;5029307;28;9156;-64
2022/09/10 00:36:31;;;;;;;;;15.33;13.33;;;;;16.70;79.90;100774.63;5028001;28;9165;-64
2022/09/10 00:39:02;;;;;;;;;20.67;18.67;;;;;16.67;79.94;100779.72;5012041;28;9120;-64
2022/09/10 00:41:29;;;;;;;;;13.33;13.33;;;;;16.69;80.01;100785.72;5029589;28;9292;-65
2022/09/10 00:44:01;;;;;;;;;18.67;18.67;;;;;16.69;79.95;100781.13;5033091;28;9327;-64
2022/09/10 00:46:31;;;;;;;;;18.33;16.33;;;;;16.69;80.07;100781.13;5031430;28;9874;-64
2022/09/10 00:49:01;;;;;;;;;14.67;14.00;;;;;16.69;79.93;100777.56;5031498;28;9159;-64
2022/09/10 00:51:31;;;;;;;;;14.33;13.33;;;;;16.69;80.22;100775.69;5031687;28;9076;-64
2022/09/10 00:54:00;;;;;;;;;21.00;21.00;;;;;16.68;79.80;100770.47;5031862;28;9106;-64
2022/09/10 00:56:27;;;;;;;;;13.33;13.00;;;;;16.69;80.10;100772.13;5032531;28;9408;-65
2022/09/10 00:58:54;;;;;;;;;12.67;12.00;;;;;16.69;79.94;100767.53;5036265;28;9054;-65
2022/09/10 01:01:22;;;;;;;;;18.00;17.33;;;;;16.67;79.73;100766.13;5051398;28;9166;-65
2022/09/10 01:03:49;;;;;;;;;14.33;12.67;;;;;16.67;79.63;100768.84;5052752;28;9231;-64
2022/09/10 01:06:17;;;;;;;;;14.33;13.33;;;;;16.68;79.82;100756.91;5037824;28;9043;-65
2022/09/10 01:08:43;;;;;;;;;14.67;12.00;;;;;16.70;79.87;100763.75;5032522;28;9937;-65
2022/09/10 01:11:28;;;;;;;;;11.00;9.00;;;;;16.71;79.97;100753.72;5031369;28;8992;-65
2022/09/10 01:13:57;;;;;;;;;14.00;10.33;;;;;16.72;79.81;100760.78;5030962;28;9014;-65
2022/09/10 01:16:32;;;;;;;;;10.00;10.00;;;;;16.72;79.69;100764.34;5031262;28;9713;-65
2022/09/10 01:19:18;;;;;;;;;7.67;7.67;;;;;16.70;79.81;100765.66;5037503;28;8980;-65
2022/09/10 01:22:01;;;;;;;;;12.33;10.67;;;;;16.70;79.46;100765.66;5051129;28;8914;-65
2022/09/10 01:24:47;;;;;;;;;11.00;11.00;;;;;16.71;79.90;100773.56;5050883;28;9162;-65
2022/09/10 01:27:36;;;;;;;;;10.67;9.00;;;;;16.67;79.27;100772.38;5032758;28;9003;-64
2022/09/10 01:30:08;;;;;;;;;12.75;11.50;;;;;16.64;79.19;100764.69;5011424;28;8921;-64
2022/09/10 01:32:54;;;;;;;;;12.67;10.67;;;;;16.60;79.56;100763.50;5011298;28;8854;-64
2022/09/10 01:35:36;;;;;;;;;10.00;9.00;;;;;16.60;79.55;100768.94;5021885;28;9156;-64
2022/09/10 01:38:09;;;;;;;;;8.75;8.75;;;;;16.60;79.45;100763.50;5030819;28;8926;-64
2022/09/10 01:40:37;;;;;;;;;7.67;7.67;;;;;16.60;79.67;100771.66;5031038;28;8837;-64
2022/09/10 01:43:09;;;;;;;;;12.00;10.67;;;;;16.60;79.58;100768.94;5030650;28;8919;-64
2022/09/10 01:45:49;;;;;;;;;7.00;7.00;;;;;16.60;79.32;100774.38;5030809;28;9012;-64
2022/09/10 01:48:52;;;;;;;;;11.00;10.33;;;;;16.55;79.59;100772.38;5030807;28;9750;-63
2022/09/10 01:51:37;;;;;;;;;10.50;9.25;;;;;16.55;79.12;100766.94;5031011;28;9006;-64
2022/09/10 01:54:10;;;;;;;;;11.00;8.67;;;;;16.54;79.67;100772.63;5031436;28;9006;-63
2022/09/10 01:56:42;;;;;;;;;9.33;8.00;;;;;16.54;79.99;100772.63;5030500;28;8946;-65
2022/09/10 01:59:24;;;;;;;;;8.00;7.33;;;;;16.52;79.89;100777.44;5030664;28;9082;-65
2022/09/10 02:02:02;;;;;;;;;8.75;7.25;;;;;16.55;80.03;100780.53;5030899;28;9102;-65
2022/09/10 02:04:30;;;;;;;;;8.00;7.25;;;;;16.56;79.89;100771.28;5034133;28;8948;-65
2022/09/10 02:06:58;;;;;;;;;13.33;13.00;;;;;16.54;80.08;100768.00;5050677;28;8842;-65
2022/09/10 02:09:25;;;;;;;;;10.67;10.67;;;;;16.54;79.54;100764.47;5050168;28;8965;-65
2022/09/10 02:11:53;;;;;;;;;9.33;9.33;;;;;16.55;80.03;100763.38;5051378;28;9080;-65
2022/09/10 02:14:32;;;;;;;;;10.67;10.67;;;;;16.56;80.16;100762.31;5051570;28;9083;-65
2022/09/10 02:17:21;;;;;;;;;12.67;12.00;;;;;16.57;79.74;100758.56;5049756;28;8944;-65
2022/09/10 02:19:51;;;;;;;;;14.33;14.33;;;;;16.55;79.58;100761.50;5047369;28;9073;-65
2022/09/10 02:22:18;;;;;;;;;16.33;15.33;;;;;16.55;79.83;100760.69;5031558;28;9161;-65
2022/09/10 02:24:44;;;;;;;;;14.00;14.00;;;;;16.49;79.75;100767.88;5031315;28;9101;-65
2022/09/10 02:27:11;;;;;;;;;11.67;11.67;;;;;16.45;79.62;100765.88;5029593;28;10018;-65
2022/09/10 02:29:38;;;;;;;;;12.67;12.67;;;;;16.39;79.88;100769.53;5031057;28;9123;-65
2022/09/10 02:32:07;;;;;;;;;17.00;17.00;;;;;16.36;80.44;100773.53;5030047;28;9076;-65
2022/09/10 02:34:35;;;;;;;;;13.00;13.00;;;;;16.35;80.03;100769.16;5029748;28;9204;-65
2022/09/10 02:37:02;;;;;;;;;12.33;11.33;;;;;16.31;80.20;100766.09;5030305;28;9909;-65
2022/09/10 02:39:29;;;;;;;;;11.00;10.67;;;;;16.30;79.94;100771.75;5030111;28;9879;-65
2022/09/10 02:41:57;;;;;;;;;10.00;10.00;;;;;16.28;80.17;100766.53;5029617;28;9182;-65
2022/09/10 02:44:26;;;;;;;;;10.67;9.00;;;;;16.28;79.91;100761.09;5029486;28;9071;-65
2022/09/10 02:46:54;;;;;;;;;7.67;7.67;;;;;16.29;80.31;100757.34;5030508;28;9072;-65
2022/09/10 02:49:20;;;;;;;;;10.00;9.33;;;;;16.27;79.71;100767.59;5013205;28;9129;-65
2022/09/10 02:51:49;;;;;;;;;10.33;9.00;;;;;16.27;79.88;100770.31;5029214;28;8989;-65
2022/09/10 02:54:18;;;;;;;;;9.67;9.67;;;;;16.28;80.11;100766.53;5029842;28;9788;-65
2022/09/10 02:56:48;;;;;;;;;9.25;8.00;;;;;16.30;79.81;100760.88;5028871;28;9028;-64
2022/09/10 02:59:16;;;;;;;;;10.33;8.67;;;;;16.30;79.79;100763.59;5029351;28;8836;-64
2022/09/10 03:01:43;;;;;;;;;9.33;9.00;;;;;16.28;79.48;100758.41;5029347;28;9102;-65
2022/09/10 03:04:10;;;;;;;;;6.33;6.33;;;;;16.26;79.79;100754.28;5028668;28;8936;-64
2022/09/10 03:06:37;;;;;;;;;7.00;7.00;;;;;16.26;79.84;100757.81;5028517;28;8951;-65
2022/09/10 03:09:03;;;;;;;;;9.00;8.33;;;;;16.25;79.66;100758.06;5029528;28;9001;-65
2022/09/10 03:11:30;;;;;;;;;11.67;10.67;;;;;16.24;80.01;100749.06;5029114;28;9098;-65
2022/09/10 03:13:57;;;;;;;;;15.00;9.00;;;;;16.25;80.00;100752.63;5042631;28;9125;-64
2022/09/10 03:16:24;;;;;;;;;9.00;9.00;;;;;16.27;80.25;100750.50;5049329;28;9091;-64
2022/09/10 03:18:51;;;;;;;;;12.67;11.00;;;;;16.30;80.03;100747.31;5049735;28;9038;-65
2022/09/10 03:21:20;;;;;;;;;11.33;11.33;;;;;16.32;80.10;100756.03;5049475;28;9287;-65
2022/09/10 03:23:48;;;;;;;;;7.00;7.00;;;;;16.36;80.11;100754.50;5047621;28;9013;-64
2022/09/10 03:26:21;;;;;;;;;9.00;8.00;;;;;16.37;79.79;100758.06;5048756;28;9018;-64
2022/09/10 03:28:48;;;;;;;;;8.00;7.00;;;;;16.40;79.61;100758.41;5048709;28;9087;-64
2022/09/10 03:31:18;;;;;;;;;8.00;7.33;;;;;16.40;79.88;100752.97;5049298;28;9009;-65
2022/09/10 03:33:48;;;;;;;;;9.33;8.00;;;;;16.43;79.59;100752.50;5048592;28;8947;-64
2022/09/10 03:36:14;;;;;;;;;8.00;7.67;;;;;16.45;79.71;100763.16;5048547;28;9198;-65
2022/09/10 03:38:42;;;;;;;;;13.67;12.00;;;;;16.44;79.91;100754.16;5048344;28;9005;-65
2022/09/10 03:41:09;;;;;;;;;10.00;9.33;;;;;16.46;79.78;100756.66;5033808;28;9078;-65
2022/09/10 03:43:36;;;;;;;;;9.67;9.67;;;;;16.45;79.65;100747.69;5028958;28;9021;-65
2022/09/10 03:46:06;;;;;;;;;14.33;11.00;;;;;16.42;79.90;100741.91;5028543;28;9083;-65
2022/09/10 03:48:38;;;;;;;;;17.67;16.33;;;;;16.40;79.81;100750.25;5028459;28;9887;-64
2022/09/10 03:51:06;;;;;;;;;12.67;11.00;;;;;16.39;80.10;100743.19;5028521;28;9305;-64
2022/09/10 03:53:33;;;;;;;;;14.67;13.67;;;;;16.41;79.84;100748.41;5013147;28;9094;-64
2022/09/10 03:56:00;;;;;;;;;12.33;11.67;;;;;16.44;80.25;100745.19;5043051;28;9260;-65
2022/09/10 03:58:27;;;;;;;;;11.00;10.67;;;;;16.47;80.20;100744.72;5028193;28;9117;-65
2022/09/10 04:00:54;;;;;;;;;10.00;8.67;;;;;16.49;80.06;100740.72;5028394;28;9252;-65
2022/09/10 04:03:21;;;;;;;;;13.33;12.67;;;;;16.52;79.67;100751.09;5028602;28;9002;-65
2022/09/10 04:05:48;;;;;;;;;13.33;11.67;;;;;16.53;79.90;100754.66;5028109;28;9098;-64
2022/09/10 04:08:14;;;;;;;;;11.67;11.67;;;;;16.55;80.01;100756.06;5027973;28;9033;-64
2022/09/10 04:10:43;;;;;;;;;13.67;12.33;;;;;16.55;80.16;100752.53;5028309;28;9126;-64
2022/09/10 04:13:10;;;;;;;;;7.67;7.67;;;;;16.59;80.19;100756.44;5028147;28;9262;-64
2022/09/10 04:15:37;;;;;;;;;10.33;10.00;;;;;16.60;79.82;100752.63;5028807;28;9090;-65
2022/09/10 04:18:04;;;;;;;;;9.33;9.33;;;;;16.61;79.69;100759.75;5032117;28;9877;-65
2022/09/10 04:20:32;;;;;;;;;11.33;8.67;;;;;16.61;79.87;100759.75;5032403;28;9001;-64
2022/09/10 04:23:04;;;;;;;;;9.00;8.67;;;;;16.61;79.71;100762.47;5032214;28;9235;-64
2022/09/10 04:25:33;;;;;;;;;14.00;13.00;;;;;16.61;79.52;100759.75;5032002;28;9053;-65
2022/09/10 04:28:00;;;;;;;;;8.67;8.33;;;;;16.60;79.92;100760.78;5032995;28;8992;-64
2022/09/10 04:30:28;;;;;;;;;13.00;13.00;;;;;16.59;79.81;100751.00;5032542;28;9153;-65
2022/09/10 04:32:54;;;;;;;;;11.00;11.00;;;;;16.60;80.03;100760.78;5032637;28;9102;-65
2022/09/10 04:35:21;;;;;;;;;10.67;10.00;;;;;16.61;80.20;100756.19;5032912;28;9078;-64
2022/09/10 04:37:47;;;;;;;;;4.67;4.67;;;;;16.63;79.84;100757.59;5033756;28;9005;-64
2022/09/10 04:40:14;;;;;;;;;9.00;7.00;;;;;16.65;80.14;100766.38;5031850;28;9014;-64
2022/09/10 04:42:41;;;;;;;;;9.00;9.00;;;;;16.66;79.96;100761.75;5032110;28;9003;-64
2022/09/10 04:45:08;;;;;;;;;7.00;7.00;;;;;16.66;79.87;100757.13;5031822;28;8937;-64
2022/09/10 04:47:35;;;;;;;;;8.00;8.00;;;;;16.69;79.80;100770.25;5031593;28;8989;-65
2022/09/10 04:50:02;;;;;;;;;8.33;8.33;;;;;16.71;80.13;100775.44;5031875;28;9129;-64
2022/09/10 04:52:28;;;;;;;;;9.33;9.33;;;;;16.74;79.70;100769.59;5031937;28;9109;-64
2022/09/10 04:54:55;;;;;;;;;11.33;11.33;;;;;16.75;79.65;100773.94;5031308;28;8943;-67
2022/09/10 04:57:24;;;;;;;;;10.00;10.00;;;;;16.74;79.76;100778.56;5031543;28;9283;-66
2022/09/10 04:59:52;;;;;;;;;9.67;8.00;;;;;16.73;79.36;100771.47;5031599;28;8977;-65
2022/09/10 05:02:20;;;;;;;;;11.67;11.67;;;;;16.74;79.50;100773.13;5031791;28;9080;-65
2022/09/10 05:04:47;;;;;;;;;10.00;8.33;;;;;16.77;79.76;100774.53;5031575;28;9111;-65
2022/09/10 05:07:13;;;;;;;;;9.75;8.50;;;;;16.77;79.39;100778.09;5030864;28;9016;-66
2022/09/10 05:09:41;;;;;;;;;10.00;10.00;;;;;16.76;79.35;100778.31;5031347;28;8832;-65
2022/09/10 05:12:07;;;;;;;;;8.00;7.33;;;;;16.75;79.57;100780.22;5031355;28;9128;-66
2022/09/10 05:14:33;;;;;;;;;8.67;8.67;;;;;16.76;79.85;100778.31;5036554;28;9079;-66
2022/09/10 05:17:02;;;;;;;;;10.00;10.00;;;;;16.77;79.94;100774.53;5052110;28;8941;-66
2022/09/10 05:19:29;;;;;;;;;8.00;7.33;;;;;16.79;79.66;100783.28;5034919;28;9582;-65
2022/09/10 05:22:02;;;;;;;;;8.33;8.33;;;;;16.78;79.49;100779.75;5051025;28;8984;-63
2022/09/10 05:24:33;;;;;;;;;6.00;6.00;;;;;16.79;79.74;100786.00;5051115;28;8908;-65
2022/09/10 05:27:02;;;;;;;;;8.50;7.75;;;;;16.79;79.76;100786.81;5050574;28;8929;-65
2022/09/10 05:29:28;;;;;;;;;9.00;7.00;;;;;16.80;79.91;100784.94;5033800;28;8945;-65
2022/09/10 05:31:56;;;;;;;;;4.25;4.25;;;;;16.81;79.73;100786.56;5031258;28;9009;-66
2022/09/10 05:34:23;;;;;;;;;9.25;6.25;;;;;16.83;79.65;100791.78;5030849;28;8965;-66
2022/09/10 05:36:51;;;;;;;;;7.67;7.00;;;;;16.83;79.56;100789.91;5014274;28;8824;-65
2022/09/10 05:39:18;;;;;;;;;5.00;5.00;;;;;16.83;79.59;100795.34;5032049;28;8931;-65
2022/09/10 05:41:45;;;;;;;;;8.67;7.67;;;;;16.81;79.76;100800.16;5030309;28;8921;-65
2022/09/10 05:44:13;;;;;;;;;7.75;7.75;;;;;16.82;79.71;100798.31;5030591;28;9069;-66
2022/09/10 05:46:40;;;;;;;;;7.00;7.00;;;;;16.83;79.71;100802.66;5030031;28;9035;-66
2022/09/10 05:49:11;;;;;;;;;11.00;9.00;;;;;16.84;79.61;100801.59;5030528;28;8996;-65
2022/09/10 05:51:38;;;;;;;;;11.67;11.00;;;;;16.83;79.89;100799.94;5047445;28;8991;-65
2022/09/10 05:54:07;;;;;;;;;11.00;11.00;;;;;16.82;79.79;100799.13;5050279;28;9033;-66
2022/09/10 05:56:33;;;;;;;;;10.67;10.67;;;;;16.79;79.95;100803.13;5050183;28;9801;-65
2022/09/10 05:59:02;;;;;;;;;15.00;11.33;;;;;16.78;79.98;100801.50;5050463;28;8957;-65
2022/09/10 06:01:33;;;;;;;;;12.67;12.33;;;;;16.76;79.99;100805.50;5050476;28;9013;-66
2022/09/10 06:04:03;;;;;;;;;9.67;9.67;;;;;16.74;79.51;100803.03;5048998;28;8998;-66
2022/09/10 06:06:29;;;;;;;;;12.00;12.00;;;;;16.76;79.89;100811.75;5049892;22;9034;-67
2022/09/10 06:09:02;;;;;;;;;10.00;8.00;;;;;16.78;79.98;100814.25;5011187;28;9094;-66
2022/09/10 06:11:42;;;;;;;;;8.33;8.33;;;;;16.79;80.22;100813.19;5010885;28;8969;-67
2022/09/10 06:14:09;;;;;;;;;10.00;10.00;;;;;16.81;79.80;100819.19;5027105;28;9088;-67
2022/09/10 06:16:36;;;;;;;;;7.25;5.75;;;;;16.83;79.91;100827.13;5010833;28;8934;-67
2022/09/10 06:19:05;;;;;;;;;8.00;8.00;;;;;16.84;79.61;100824.19;5012609;28;8874;-66
2022/09/10 06:21:33;;;;;;;;;10.00;8.00;;;;;16.84;79.70;100834.22;5028101;28;8945;-67
2022/09/10 06:23:59;;;;;;;;;9.75;8.75;;;;;16.86;79.56;100832.13;5026868;28;8942;-66
2022/09/10 06:26:30;;;;;;;;;10.00;8.67;;;;;16.87;79.46;100831.03;5026463;28;9594;-67
2022/09/10 06:29:02;;;;;;;;;9.00;9.00;;;;;16.88;79.68;100830.78;5010799;28;8992;-66
2022/09/10 06:31:29;;;;;;;;;10.00;10.00;;;;;16.87;79.51;100829.16;5026518;28;9012;-65
2022/09/10 06:33:57;;;;;;;;;11.67;9.67;;;;;16.88;79.88;100835.41;5026496;28;9766;-66
2022/09/10 06:36:28;;;;;;;;;10.67;10.67;;;;;16.88;79.79;100846.28;5028773;28;9828;-65
2022/09/10 06:38:56;;;;;;;;;9.00;9.00;;;;;16.89;79.91;100842.50;5012219;28;8933;-65
2022/09/10 06:41:23;;;;;;;;;5.50;5.50;;;;;16.92;79.68;100848.28;5012663;28;9107;-66
2022/09/10 06:44:04;;;;;;;;;10.00;9.75;;;;;16.93;79.87;100849.13;5030321;28;8847;-66
2022/09/10 06:46:35;;;;;;;;;7.00;7.00;;;;;16.93;79.92;100855.38;5013037;28;8839;-66
2022/09/10 06:49:23;;;;;;;;;11.00;11.00;;;;;16.93;79.80;100855.38;5014642;28;9048;-67
2022/09/10 06:51:51;;;;;;;;;12.00;12.00;;;;;16.95;79.53;100855.16;5012981;28;8986;-66
2022/09/10 06:54:17;;;;;;;;;10.00;9.67;;;;;16.96;80.00;100862.25;5040997;28;9079;-66
2022/09/10 06:56:45;;;;;;;;;10.33;9.00;;;;;16.97;79.64;100861.19;5023264;28;8925;-66
2022/09/10 06:59:13;;;;;;;;;9.25;9.25;;;;;16.96;79.48;100864.97;5013526;28;8933;-66
2022/09/10 07:01:46;;;;;;;;;10.75;9.25;;;;;16.96;79.66;100865.78;5013666;28;9603;-65
2022/09/10 07:04:13;;;;;;;;;12.33;12.33;;;;;16.96;79.67;100862.25;5013701;28;8835;-66
2022/09/10 07:06:40;;;;;;;;;12.67;10.00;;;;;16.97;79.51;100869.34;5013089;28;9080;-67
2022/09/10 07:09:09;;;;;;;;;8.33;8.33;;;;;16.99;79.61;100870.75;5025152;28;8991;-67
2022/09/10 07:11:51;;;;;;;;;9.00;9.00;;;;;17.02;79.71;100870.31;5029973;28;8907;-66
2022/09/10 07:14:18;;;;;;;;;10.00;10.00;;;;;17.05;79.62;100874.41;5031006;28;8917;-67
2022/09/10 07:16:46;;;;;;;;;10.67;10.67;;;;;17.09;79.83;100883.75;5029452;28;8995;-66
2022/09/10 07:19:13;;;;;;;;;7.00;6.00;;;;;17.10;79.71;100890.88;5029573;28;9066;-67
2022/09/10 07:21:45;;;;;;;;;8.75;8.75;;;;;17.11;79.58;100902.59;5029150;28;9797;-67
2022/09/10 07:24:13;;;;;;;;;7.00;6.75;;;;;17.10;79.78;100892.78;5029076;28;9552;-66
2022/09/10 07:26:56;;;;;;;;;7.67;6.00;;;;;17.09;79.52;100900.09;5029022;28;8840;-67
2022/09/10 07:29:23;;;;;;;;;8.67;8.00;;;;;17.11;79.78;100905.31;5029211;28;8934;-66
2022/09/10 07:31:50;;;;;;;;;18.67;15.67;;;;;17.05;79.74;100899.75;5028933;28;8928;-66
2022/09/10 07:34:21;;;;;;;;;13.33;11.33;;;;;17.03;79.82;100907.31;5028601;28;9854;-66
2022/09/10 07:36:48;;;;;;;;;15.33;15.00;;;;;17.04;79.69;100910.84;5009342;28;9068;-67
2022/09/10 07:39:14;;;;;;;;;12.67;12.67;;;;;17.06;79.90;100914.19;5009117;28;8982;-66
2022/09/10 07:41:41;;;;;;;;;12.33;11.67;;;;;17.08;79.53;100914.75;5009513;28;8979;-67
2022/09/10 07:44:11;;;;;;;;;12.00;11.00;;;;;17.13;79.96;100905.88;5009726;28;9000;-67
2022/09/10 07:46:41;;;;;;;;;10.33;9.67;;;;;17.18;79.85;100908.75;5024929;28;9682;-67
2022/09/10 07:49:10;;;;;;;;;10.00;8.75;;;;;17.23;79.63;100917.00;5034349;28;8916;-67
2022/09/10 07:51:39;;;;;;;;;8.75;8.75;;;;;17.24;79.50;100921.38;5028613;28;8836;-67
2022/09/10 07:54:06;;;;;;;;;12.67;12.67;;;;;17.23;79.61;100925.19;5028816;28;8963;-67
2022/09/10 07:56:37;;;;;;;;;9.25;9.25;;;;;17.22;79.29;100927.06;5028781;28;9020;-67
2022/09/10 07:59:06;;;;;;;;;14.67;13.67;;;;;17.21;79.80;100933.56;5030460;28;8820;-67
2022/09/10 08:01:42;;;;;;;;;12.75;11.25;;;;;17.26;79.59;100938.31;5028720;28;8987;-67
2022/09/10 08:04:09;;;;;;;;;10.00;9.50;;;;;17.33;79.92;100935.47;5024397;28;8859;-67
2022/09/10 08:06:37;;;;;;;;;12.67;12.67;;;;;17.39;79.59;100940.78;5008130;28;8905;-68
2022/09/10 08:09:06;;;;;;;;;11.00;9.00;;;;;17.46;79.42;100943.38;5025155;28;8921;-67
2022/09/10 08:11:34;;;;;;;;;12.00;11.00;;;;;17.49;79.05;100951.06;5008635;28;8888;-67
2022/09/10 08:14:01;;;;;;;;;9.00;9.00;;;;;17.49;79.12;100948.34;5009873;28;8847;-67
2022/09/10 08:16:28;;;;;;;;;9.50;9.50;;;;;17.52;79.15;100956.88;5008334;28;9170;-66
2022/09/10 08:19:01;;;;;;;;;7.25;7.25;;;;;17.58;79.18;100959.69;5008596;28;8839;-67
2022/09/10 08:21:31;;;;;;;;;10.25;10.00;;;;;17.61;79.09;100968.22;5009061;28;9563;-66
2022/09/10 08:23:59;;;;;;;;;6.25;6.25;;;;;17.64;78.96;100962.31;5025151;28;8932;-67
2022/09/10 08:26:28;;;;;;;;;10.00;10.00;;;;;17.68;79.04;100974.38;5008083;28;9001;-67
2022/09/10 08:28:58;;;;;;;;;10.00;10.00;;;;;17.62;78.57;100977.22;5024914;28;8835;-67
2022/09/10 08:31:26;;;;;;;;;16.00;15.00;;;;;17.53;78.45;100984.91;5008427;28;8850;-67
2022/09/10 08:33:57;;;;;;;;;18.00;16.00;;;;;17.41;78.40;100992.25;5010033;28;8970;-67
2022/09/10 08:36:25;;;;;;;;;8.25;8.25;;;;;17.39;78.81;100999.84;5024873;28;8948;-66
2022/09/10 08:38:53;;;;;;;;;11.75;11.00;;;;;17.40;78.88;101005.03;5009887;28;8841;-67
2022/09/10 08:41:54;;;;;;;;;14.00;12.67;;;;;17.41;78.41;101003.97;5008535;28;8835;-67
2022/09/10 08:44:53;;;;;;;;;17.00;15.67;;;;;17.37;78.76;101001.94;5008356;28;8938;-67
2022/09/10 08:47:34;;;;;;;;;11.75;11.00;;;;;17.40;79.21;101015.09;5008211;28;8947;-67
2022/09/10 08:50:14;;;;;;;;;12.75;12.00;;;;;17.45;78.84;101012.47;5008665;28;8905;-66
2022/09/10 08:52:56;;;;;;;;;14.67;14.67;;;;;17.48;78.31;101012.84;5025194;28;8823;-67
2022/09/10 08:55:31;;;;;;;;;18.67;15.00;;;;;17.50;78.46;101018.03;5008282;28;8936;-66
2022/09/10 08:58:01;;;;;;;;;14.75;12.00;;;;;17.55;78.34;101026.34;5007865;28;9070;-66
2022/09/10 09:00:36;;;;;;;;;15.25;14.25;;;;;17.62;78.13;101028.94;5007974;28;8823;-66
2022/09/10 09:03:21;;;;;;;;;12.75;12.75;;;;;17.68;78.18;101037.00;5009470;28;8855;-67
2022/09/10 09:05:54;;;;;;;;;15.00;14.33;;;;;17.68;77.85;101044.34;5028764;28;9579;-67
2022/09/10 09:08:29;;;;;;;;;19.67;15.33;;;;;17.60;76.83;101050.97;5008415;28;8921;-66
2022/09/10 09:11:11;;;;;;;;;15.75;15.75;;;;;17.53;77.31;101053.78;4992202;28;8937;-66
2022/09/10 09:13:54;;;;;;;;;12.25;12.25;;;;;17.50;77.30;101053.41;4992506;28;9558;-66
2022/09/10 09:16:48;;;;;;;;;14.00;13.00;;;;;17.52;77.18;101054.84;4975932;28;8903;-66
2022/09/10 09:19:55;;;;;;;;;9.00;9.00;;;;;17.60;77.23;101061.84;4992398;28;8838;-68
2022/09/10 09:22:58;;;;;;;;;12.75;12.75;;;;;17.70;76.79;101056.66;4992186;28;8920;-67
2022/09/10 09:25:36;;;;;;;;;17.67;17.67;;;;;17.80;76.09;101061.53;4992830;28;8965;-65
2022/09/10 09:28:16;;;;;;;;;15.00;12.00;;;;;17.87;75.63;101058.72;4992019;28;9790;-66
2022/09/10 09:30:48;;;;;;;;;17.25;16.50;;;;;17.94;75.82;101056.66;4992852;28;8911;-67
2022/09/10 09:33:21;;;;;;;;;10.25;10.25;;;;;17.98;75.20;101060.56;4991376;28;8830;-68
2022/09/10 09:35:59;;;;;;;;;13.00;12.50;;;;;18.03;75.03;101063.44;4993629;28;9687;-67
2022/09/10 09:38:40;;;;;;;;;14.00;12.25;;;;;18.03;74.52;101061.53;5027019;28;8850;-67
2022/09/10 09:41:22;;;;;;;;;11.00;11.00;;;;;18.09;74.55;101069.81;5010607;28;8921;-67
2022/09/10 09:44:02;;;;;;;;;16.00;16.00;;;;;18.08;74.58;101069.00;5012149;28;8928;-67
2022/09/10 09:46:31;;;;;;;;;11.75;10.25;;;;;18.15;74.84;101069.69;5018604;28;8928;-67
2022/09/10 09:49:01;;;;;;;;;12.75;12.75;;;;;18.21;74.69;101076.06;5030306;28;8820;-68
2022/09/10 09:51:34;;;;;;;;;13.75;12.50;;;;;18.17;73.49;101073.00;5030491;28;8928;-67
2022/09/10 09:54:07;;;;;;;;;13.25;12.50;;;;;18.14;73.02;101081.63;5031890;28;8813;-66
2022/09/10 09:56:57;;;;;;;;;9.50;8.50;;;;;18.21;73.32;101086.97;5030765;28;8925;-66
2022/09/10 09:59:30;;;;;;;;;10.50;8.50;;;;;18.33;73.53;101084.25;5027476;28;8874;-67
2022/09/10 10:02:09;;;;;;;;;12.75;11.75;;;;;18.50;73.01;101082.41;5011763;28;8827;-66
2022/09/10 10:04:36;;;;;;;;;10.00;10.00;;;;;18.52;72.65;101093.91;5011550;28;8831;-66
2022/09/10 10:07:07;;;;;;;;;9.00;8.00;;;;;18.57;72.68;101096.75;5011642;28;8950;-66
2022/09/10 10:09:41;;;;;;;;;8.00;8.00;;;;;18.58;72.32;101095.66;5011234;28;8850;-66
2022/09/10 10:12:19;;;;;;;;;8.50;8.50;;;;;18.61;72.39;101095.19;5031465;28;9577;-67
2022/09/10 10:14:46;;;;;;;;;12.25;10.25;;;;;18.63;72.08;101103.94;5031115;28;8865;-66
2022/09/10 10:17:30;;;;;;;;;7.50;6.75;;;;;18.63;71.99;101103.94;5030996;28;8840;-67
2022/09/10 10:20:06;;;;;;;;;9.25;8.25;;;;;18.64;71.00;101107.53;5031099;28;8837;-67
2022/09/10 10:22:32;;;;;;;;;8.00;7.50;;;;;18.65;71.07;101106.44;5031234;28;8847;-67
2022/09/10 10:25:00;;;;;;;;;6.75;6.75;;;;;18.69;71.00;101102.16;5029480;28;8832;-66
2022/09/10 10:27:31;;;;;;;;;7.75;7.75;;;;;18.71;69.97;101103.59;5030278;28;8854;-66
2022/09/10 10:30:01;;;;;;;;;5.25;5.25;;;;;18.73;70.10;101106.94;5030571;28;8832;-67
2022/09/10 10:32:57;;;;;;;;;8.75;7.00;;;;;18.69;69.81;101111.19;5030160;28;8870;-67
2022/09/10 10:35:45;;;;;;;;;8.00;7.50;;;;;18.68;69.84;101122.34;5026494;28;8903;-67
2022/09/10 10:38:27;;;;;;;;;5.25;5.25;;;;;18.57;69.47;101110.38;5030058;28;8847;-67
2022/09/10 10:41:12;;;;;;;;;8.00;8.00;;;;;18.61;69.30;101108.00;5019824;28;8843;-67
2022/09/10 10:43:41;;;;;;;;;5.75;5.75;;;;;18.69;69.87;101113.91;5009217;28;9536;-67
2022/09/10 10:46:19;;;;;;;;;7.50;6.25;;;;;18.74;69.08;101122.22;5010093;28;8854;-67
2022/09/10 10:49:10;;;;;;;;;3.00;3.00;;;;;18.81;69.20;101122.09;5010434;28;8842;-66
2022/09/10 10:52:07;;;;;;;;;6.25;6.25;;;;;18.85;68.22;101117.81;5010566;28;8811;-67
2022/09/10 10:55:01;;;;;;;;;6.75;6.75;;;;;18.88;68.38;101121.91;5010527;28;8854;-66
2022/09/10 10:57:59;;;;;;;;;11.75;10.25;;;;;18.94;68.69;101127.25;5010182;28;8843;-65
2022/09/10 11:00:28;;;;;;;;;4.75;4.75;;;;;19.01;69.10;101127.94;5021277;28;8903;-66
2022/09/10 11:03:08;;;;;;;;;7.00;6.00;;;;;19.13;69.57;101141.53;5030035;28;8863;-66
2022/09/10 11:05:41;;;;;;;;;8.25;8.25;;;;;19.12;69.66;101149.94;5029645;28;8937;-67
2022/09/10 11:08:10;;;;;;;;;7.00;7.00;;;;;19.03;69.11;101150.34;5017483;28;8800;-66
2022/09/10 11:10:53;;;;;;;;;5.00;5.00;;;;;19.00;69.47;101150.03;5010141;28;8843;-67
2022/09/10 11:13:35;;;;;;;;;6.75;6.25;;;;;18.91;69.63;101149.56;5010021;28;8827;-66
2022/09/10 11:16:08;;;;;;;;;9.50;7.50;;;;;18.93;69.51;101149.31;5009985;28;9594;-66
2022/09/10 11:18:57;;;;;;;;;7.75;7.25;;;;;18.87;68.88;101150.28;5009821;28;8962;-66
2022/09/10 11:22:02;;;;;;;;;10.25;7.50;;;;;18.93;69.25;101154.78;5010463;28;8839;-66
2022/09/10 11:25:01;;;;;;;;;7.75;7.50;;;;;18.97;68.98;101159.50;5025525;28;8863;-66
2022/09/10 11:27:40;;;;;;;;;8.75;6.75;;;;;19.11;68.73;101167.41;5001184;28;8827;-66
2022/09/10 11:30:15;;;;;;;;;9.50;8.25;;;;;19.16;68.81;101168.34;5010519;28;9570;-65
2022/09/10 11:32:49;;;;;;;;;6.25;6.25;;;;;19.25;68.34;101180.53;5010351;28;8866;-67
2022/09/10 11:35:22;;;;;;;;;6.50;6.50;;;;;19.27;67.99;101170.19;5008997;28;8815;-66
2022/09/10 11:37:52;;;;;;;;;11.00;7.75;;;;;19.23;67.96;101179.09;5010043;28;8831;-65
2022/09/10 11:40:27;;;;;;;;;6.50;6.50;;;;;19.17;68.41;101177.34;5009846;28;8819;-66
2022/09/10 11:42:58;;;;;;;;;9.25;9.00;;;;;19.10;69.14;101169.31;5009315;28;8843;-66
2022/09/10 11:45:40;;;;;;;;;9.75;9.25;;;;;19.18;69.17;101176.28;5009714;28;8863;-65
2022/09/10 11:48:39;;;;;;;;;9.50;8.50;;;;;19.16;68.68;101171.06;5009365;28;8858;-66